Time;durP1;ratioP1;P1;durP2;ratioP2;P2;SDS_P1;SDS_P2;PMS_P1;PMS_P2;Temp;Humidity;BMP_temperature;BMP_pressure;BME280_temperature;BME280_humidity;BME280_pressure;Samples;Min_cycle;Max_cycle;Signal;HPM_P1;HPM_P2
2022/04/28 00:02:28;;;;;;;4.22;2.50;;;8.80;86.00;;;;;;614832;230;26823;-69
2022/04/28 00:04:53;;;;;;;2.28;2.10;;;8.80;86.10;;;;;;616079;233;26560;-70
2022/04/28 00:07:21;;;;;;;3.78;2.20;;;8.70;86.10;;;;;;618934;231;26921;-70
2022/04/28 00:09:48;;;;;;;2.33;2.12;;;8.70;86.10;;;;;;620226;227;26634;-68
2022/04/28 00:12:16;;;;;;;2.55;2.33;;;8.80;86.20;;;;;;618101;230;26838;-72
2022/04/28 00:14:43;;;;;;;3.95;3.33;;;9.00;86.20;;;;;;612598;233;26556;-70
2022/04/28 00:17:11;;;;;;;2.70;2.50;;;9.10;85.80;;;;;;615047;233;26676;-70
2022/04/28 00:19:39;;;;;;;2.80;2.55;;;9.10;85.80;;;;;;620789;231;26614;-70
2022/04/28 00:22:06;;;;;;;3.80;3.40;;;9.10;85.80;;;;;;619767;230;26552;-70
2022/04/28 00:24:33;;;;;;;3.05;2.55;;;9.00;85.80;;;;;;613077;231;26837;-69
2022/04/28 00:27:00;;;;;;;2.45;2.25;;;9.00;86.00;;;;;;613410;231;26587;-69
2022/04/28 00:29:27;;;;;;;2.50;2.30;;;8.90;86.10;;;;;;621059;227;26555;-69
2022/04/28 00:31:55;;;;;;;2.30;2.10;;;8.80;86.60;;;;;;615810;231;26564;-71
2022/04/28 00:34:23;;;;;;;4.10;2.75;;;8.80;86.60;;;;;;613236;231;26627;-69
2022/04/28 00:36:50;;;;;;;1.90;1.80;;;8.80;86.90;;;;;;612631;231;26668;-71
2022/04/28 00:39:17;;;;;;;2.15;2.03;;;8.80;86.90;;;;;;620980;231;26822;-69
2022/04/28 00:41:44;;;;;;;2.10;2.00;;;8.70;86.80;;;;;;622364;231;26550;-69
2022/04/28 00:44:12;;;;;;;2.33;2.00;;;8.70;87.20;;;;;;612762;233;26827;-69
2022/04/28 00:46:42;;;;;;;2.60;2.17;;;8.60;87.40;;;;;;617039;231;26629;-69
2022/04/28 00:51:41;;;;;;;2.05;1.95;;;8.60;87.50;;;;;;621160;231;26604;-69
2022/04/28 00:54:08;;;;;;;2.00;1.90;;;8.60;87.40;;;;;;617105;231;26865;-69
2022/04/28 00:56:35;;;;;;;2.05;1.95;;;8.60;87.50;;;;;;621942;231;26584;-69
2022/04/28 00:59:04;;;;;;;1.92;1.83;;;8.60;87.40;;;;;;615277;231;26564;-68
2022/04/28 01:01:31;;;;;;;3.40;3.10;;;8.60;87.70;;;;;;612351;234;26849;-68
2022/04/28 01:03:58;;;;;;;2.28;1.87;;;8.50;87.40;;;;;;618190;231;26803;-68
2022/04/28 01:06:25;;;;;;;1.85;1.75;;;8.50;87.10;;;;;;621969;229;26589;-69
2022/04/28 01:08:53;;;;;;;2.17;2.08;;;8.50;87.50;;;;;;616966;230;26841;-69
2022/04/28 01:11:21;;;;;;;2.95;2.40;;;8.40;87.60;;;;;;613383;233;26563;-68
2022/04/28 01:13:49;;;;;;;4.12;3.42;;;8.40;87.30;;;;;;613326;232;26563;-69
2022/04/28 01:16:16;;;;;;;2.78;2.12;;;8.40;88.00;;;;;;615529;228;26592;-68
2022/04/28 01:18:43;;;;;;;1.98;1.87;;;8.40;86.80;;;;;;616095;231;26591;-68
2022/04/28 01:21:10;;;;;;;2.70;2.50;;;8.30;86.90;;;;;;613039;233;26866;-69
2022/04/28 01:23:37;;;;;;;2.85;1.85;;;8.20;87.20;;;;;;614571;230;26604;-68
2022/04/28 01:26:05;;;;;;;1.80;1.70;;;8.20;87.20;;;;;;613715;232;26579;-68
2022/04/28 01:28:32;;;;;;;1.90;1.80;;;8.20;87.80;;;;;;613464;231;26683;-68
2022/04/28 01:31:00;;;;;;;2.80;2.60;;;8.10;88.00;;;;;;616010;232;26630;-68
2022/04/28 01:33:28;;;;;;;3.60;3.40;;;8.10;88.00;;;;;;615727;230;26932;-68
2022/04/28 01:35:55;;;;;;;2.12;2.00;;;8.20;88.10;;;;;;618459;230;26522;-68
2022/04/28 01:38:23;;;;;;;2.75;2.55;;;8.20;88.50;;;;;;616567;231;26865;-68
2022/04/28 01:40:50;;;;;;;3.87;3.47;;;8.20;88.80;;;;;;615903;233;26623;-68
2022/04/28 01:43:18;;;;;;;2.20;2.00;;;8.20;88.80;;;;;;616045;231;27237;-68
2022/04/28 01:45:45;;;;;;;2.00;1.90;;;8.20;88.70;;;;;;617008;231;26609;-68
2022/04/28 01:48:12;;;;;;;2.25;2.15;;;8.10;88.50;;;;;;612635;231;27320;-68
2022/04/28 01:50:39;;;;;;;3.08;2.87;;;8.20;88.90;;;;;;618330;231;26567;-68
2022/04/28 01:55:39;;;;;;;2.65;2.33;;;8.10;88.90;;;;;;612339;235;27314;-68
2022/04/28 01:58:07;;;;;;;3.08;2.80;;;8.10;89.00;;;;;;612691;231;26595;-68
2022/04/28 02:00:35;;;;;;;1.62;1.52;;;8.10;88.50;;;;;;612828;231;26618;-68
2022/04/28 02:03:03;;;;;;;2.00;1.70;;;8.10;88.50;;;;;;613294;231;26604;-69
2022/04/28 02:05:30;;;;;;;2.83;2.62;;;8.10;88.60;;;;;;618274;231;26817;-68
2022/04/28 02:07:57;;;;;;;2.00;1.90;;;8.10;88.30;;;;;;617330;231;26606;-68
2022/04/28 02:10:24;;;;;;;3.47;3.17;;;8.10;88.20;;;;;;613516;231;26569;-68
2022/04/28 02:12:55;;;;;;;2.03;1.92;;;8.10;88.10;;;;;;617719;230;26575;-68
2022/04/28 02:15:20;;;;;;;1.98;1.87;;;8.10;88.10;;;;;;613941;231;26675;-68
2022/04/28 02:17:47;;;;;;;2.33;2.12;;;8.10;88.30;;;;;;620343;229;26845;-68
2022/04/28 02:20:14;;;;;;;2.92;2.67;;;8.00;88.50;;;;;;613804;233;26847;-68
2022/04/28 02:22:42;;;;;;;4.65;4.15;;;7.90;89.20;;;;;;613894;231;26564;-68
2022/04/28 02:25:10;;;;;;;2.10;1.90;;;7.80;89.20;;;;;;617204;230;26576;-68
2022/04/28 02:27:37;;;;;;;1.90;1.73;;;7.80;89.20;;;;;;620060;230;26634;-68
2022/04/28 02:30:06;;;;;;;2.35;2.15;;;7.70;89.50;;;;;;616221;233;26586;-68
2022/04/28 02:35:16;;;;;;;1.95;1.85;;;7.70;89.70;;;;;;610066;233;26634;-68
2022/04/28 02:37:43;;;;;;;2.30;2.15;;;7.60;89.70;;;;;;623162;230;26573;-73
2022/04/28 02:40:11;;;;;;;3.40;2.40;;;7.40;90.00;;;;;;621497;231;26558;-67
2022/04/28 02:42:39;;;;;;;4.40;4.00;;;7.40;90.50;;;;;;616003;230;26532;-67
2022/04/28 02:45:07;;;;;;;2.67;2.45;;;7.40;90.20;;;;;;618921;231;26865;-67
2022/04/28 02:47:35;;;;;;;3.20;3.00;;;7.40;90.20;;;;;;615095;231;26592;-67
2022/04/28 02:50:01;;;;;;;2.25;2.10;;;7.40;90.20;;;;;;615912;233;27278;-67
2022/04/28 02:52:28;;;;;;;5.60;3.53;;;7.30;90.20;;;;;;613546;231;26580;-67
2022/04/28 02:54:56;;;;;;;2.78;2.58;;;7.20;90.30;;;;;;614918;233;26581;-67
2022/04/28 02:57:24;;;;;;;2.78;2.12;;;7.10;90.30;;;;;;617678;231;26599;-67
2022/04/28 02:59:52;;;;;;;3.05;2.85;;;7.10;90.70;;;;;;621057;231;26579;-67
2022/04/28 03:02:19;;;;;;;3.00;2.80;;;7.00;90.30;;;;;;620903;231;26834;-67
2022/04/28 03:04:47;;;;;;;2.25;2.08;;;7.10;90.40;;;;;;620910;231;26579;-67
2022/04/28 03:12:20;;;;;;;2.83;2.62;;;7.00;90.70;;;;;;615595;234;27199;-67
2022/04/28 03:14:47;;;;;;;3.80;3.50;;;7.00;90.70;;;;;;613280;234;26560;-67
2022/04/28 03:17:14;;;;;;;1.75;1.65;;;6.90;90.80;;;;;;612516;231;26633;-67
2022/04/28 03:19:42;;;;;;;2.75;2.55;;;6.90;90.90;;;;;;612485;235;26556;-67
2022/04/28 03:22:10;;;;;;;3.08;2.87;;;6.90;91.10;;;;;;612474;231;26540;-67
2022/04/28 03:24:37;;;;;;;1.90;1.80;;;6.90;90.90;;;;;;612687;231;26879;-67
2022/04/28 03:27:04;;;;;;;3.50;3.20;;;6.80;90.80;;;;;;612463;235;26633;-67
2022/04/28 03:29:33;;;;;;;4.10;3.80;;;6.90;90.80;;;;;;622528;229;26595;-67
2022/04/28 03:32:00;;;;;;;2.62;2.42;;;6.90;90.80;;;;;;622308;231;26616;-67
2022/04/28 03:34:27;;;;;;;1.65;1.60;;;6.90;90.70;;;;;;618851;230;26551;-68
2022/04/28 03:36:55;;;;;;;1.95;1.85;;;6.90;90.70;;;;;;616284;232;26959;-68
2022/04/28 03:39:22;;;;;;;2.03;1.92;;;6.80;90.80;;;;;;624248;229;26563;-68
2022/04/28 03:41:49;;;;;;;2.37;2.28;;;6.70;90.80;;;;;;616211;233;26557;-66
2022/04/28 03:44:17;;;;;;;4.68;2.05;;;6.70;90.90;;;;;;615709;230;26600;-67
2022/04/28 03:46:45;;;;;;;3.12;2.92;;;6.80;90.80;;;;;;613003;234;26658;-67
2022/04/28 03:49:12;;;;;;;3.37;3.10;;;6.80;90.80;;;;;;612958;231;26798;-67
2022/04/28 03:51:39;;;;;;;3.95;3.65;;;6.80;90.70;;;;;;612746;233;26584;-67
2022/04/28 03:54:06;;;;;;;2.80;2.60;;;6.80;90.70;;;;;;617212;231;26815;-66
2022/04/28 03:56:34;;;;;;;2.30;2.17;;;6.80;90.60;;;;;;613621;231;26584;-66
2022/04/28 03:59:01;;;;;;;1.40;1.40;;;6.80;90.50;;;;;;619583;231;26570;-66
2022/04/28 04:01:29;;;;;;;2.90;1.73;;;6.80;90.50;;;;;;616830;230;26631;-66
2022/04/28 04:03:56;;;;;;;3.55;3.33;;;6.80;90.50;;;;;;621757;230;26572;-66
2022/04/28 04:06:24;;;;;;;3.28;2.97;;;6.80;90.50;;;;;;617615;231;26563;-66
2022/04/28 04:08:51;;;;;;;2.72;2.47;;;6.80;90.50;;;;;;614800;231;26565;-66
2022/04/28 04:11:18;;;;;;;4.05;3.65;;;6.80;90.40;;;;;;615591;234;26834;-67
2022/04/28 04:13:46;;;;;;;2.28;1.95;;;6.80;90.40;;;;;;616393;231;26560;-67
2022/04/28 04:16:13;;;;;;;2.25;2.15;;;6.80;90.30;;;;;;619557;231;26803;-67
2022/04/28 04:18:41;;;;;;;2.78;2.58;;;6.80;90.20;;;;;;618659;231;26598;-67
2022/04/28 04:21:09;;;;;;;3.53;2.90;;;6.80;90.20;;;;;;617750;231;26558;-67
2022/04/28 04:23:36;;;;;;;1.77;1.67;;;6.80;90.20;;;;;;615635;231;27185;-67
2022/04/28 04:26:03;;;;;;;2.03;1.70;;;6.80;90.50;;;;;;612474;234;26536;-67
2022/04/28 04:28:30;;;;;;;2.55;1.83;;;6.80;90.30;;;;;;615612;231;26816;-67
2022/04/28 04:33:31;;;;;;;2.15;2.05;;;6.80;91.70;;;;;;616625;231;26564;-67
2022/04/28 04:35:59;;;;;;;2.33;2.12;;;6.80;90.30;;;;;;612455;231;26657;-67
2022/04/28 04:38:26;;;;;;;2.33;2.15;;;6.80;90.30;;;;;;614100;233;26592;-67
2022/04/28 04:40:53;;;;;;;2.40;2.30;;;6.90;90.70;;;;;;617780;231;26576;-67
2022/04/28 04:43:21;;;;;;;2.62;2.42;;;7.00;91.10;;;;;;620726;231;26828;-66
2022/04/28 04:45:48;;;;;;;2.95;2.35;;;7.00;90.40;;;;;;622898;230;26624;-66
2022/04/28 04:48:15;;;;;;;4.35;3.95;;;7.10;90.20;;;;;;622153;230;27098;-66
2022/04/28 04:50:43;;;;;;;2.20;2.10;;;7.20;90.00;;;;;;621124;230;26612;-67
2022/04/28 04:53:11;;;;;;;2.30;1.95;;;7.30;90.20;;;;;;621588;231;26599;-67
2022/04/28 04:55:40;;;;;;;2.00;1.80;;;7.20;90.20;;;;;;621575;231;26591;-68
2022/04/28 04:58:07;;;;;;;2.85;2.20;;;7.30;90.00;;;;;;618116;231;26590;-68
2022/04/28 05:00:34;;;;;;;3.25;2.83;;;7.40;90.40;;;;;;618972;231;26798;-68
2022/04/28 05:03:02;;;;;;;3.55;3.25;;;7.50;88.70;;;;;;619797;230;26556;-67
2022/04/28 05:05:30;;;;;;;5.07;3.97;;;7.60;88.80;;;;;;612687;234;26548;-69
2022/04/28 05:07:58;;;;;;;5.78;3.80;;;7.60;87.60;;;;;;614294;231;26599;-68
2022/04/28 05:10:26;;;;;;;4.30;4.00;;;7.80;87.40;;;;;;612754;233;26563;-67
2022/04/28 05:12:56;;;;;;;3.90;3.60;;;7.90;87.00;;;;;;615748;231;26562;-68
2022/04/28 05:15:24;;;;;;;5.20;4.70;;;8.10;86.00;;;;;;618393;228;26601;-71
2022/04/28 05:17:52;;;;;;;5.28;3.85;;;8.10;85.80;;;;;;616421;231;26624;-70
2022/04/28 05:20:19;;;;;;;3.70;3.37;;;8.10;85.60;;;;;;615948;231;26831;-71
2022/04/28 05:22:47;;;;;;;3.45;3.10;;;8.10;85.10;;;;;;619013;231;26612;-70
2022/04/28 05:25:14;;;;;;;4.03;3.72;;;8.30;84.60;;;;;;612423;235;26902;-70
2022/04/28 05:27:41;;;;;;;4.18;3.87;;;8.70;82.30;;;;;;612947;231;26642;-69
2022/04/28 05:30:10;;;;;;;2.08;1.87;;;8.70;82.40;;;;;;612483;231;26627;-68
2022/04/28 05:32:37;;;;;;;3.50;3.20;;;8.70;82.40;;;;;;612894;231;26895;-71
2022/04/28 05:35:05;;;;;;;2.47;2.37;;;8.90;82.30;;;;;;617834;231;26628;-71
2022/04/28 05:37:32;;;;;;;4.18;3.80;;;9.10;80.90;;;;;;619780;226;26616;-69
2022/04/28 05:39:59;;;;;;;5.50;5.00;;;9.20;80.20;;;;;;613659;233;26827;-69
2022/04/28 05:45:41;;;;;;;3.92;3.00;;;9.30;79.30;;;;;;614504;233;26574;-69
2022/04/28 05:47:27;;;;;;;4.03;3.65;;;9.30;81.20;;;;;;614900;231;26592;-69
2022/04/28 05:49:54;;;;;;;4.97;4.53;;;9.20;81.80;;;;;;615174;231;26574;-70
2022/04/28 05:52:21;;;;;;;3.53;3.22;;;9.30;81.80;;;;;;617708;228;26605;-70
2022/04/28 05:54:48;;;;;;;3.33;3.03;;;9.40;81.20;;;;;;620163;230;26844;-70
2022/04/28 05:57:16;;;;;;;3.30;3.00;;;9.50;80.90;;;;;;621690;230;26579;-68
2022/04/28 05:59:43;;;;;;;1.70;1.60;;;9.60;80.10;;;;;;613479;227;26583;-69
2022/04/28 06:02:11;;;;;;;2.42;2.22;;;9.70;79.20;;;;;;617483;231;26644;-69
2022/04/28 06:04:39;;;;;;;4.20;2.83;;;9.80;78.90;;;;;;619113;230;27267;-69
2022/04/28 06:07:06;;;;;;;1.62;1.62;;;9.80;78.90;;;;;;616415;230;26872;-65
2022/04/28 06:09:33;;;;;;;3.58;3.00;;;9.90;78.30;;;;;;615361;231;26581;-70
2022/04/28 06:12:00;;;;;;;9.25;2.97;;;10.00;76.50;;;;;;612681;234;26705;-68
2022/04/28 06:14:29;;;;;;;58.05;12.90;;;10.40;75.60;;;;;;615817;231;26615;-70
2022/04/28 06:16:57;;;;;;;65.62;12.68;;;10.50;75.30;;;;;;616065;231;26648;-67
2022/04/28 06:19:25;;;;;;;50.60;9.95;;;10.70;74.60;;;;;;615373;231;26589;-66
2022/04/28 06:21:53;;;;;;;47.28;9.02;;;10.70;74.10;;;;;;612947;232;26517;-65
2022/04/28 06:24:21;;;;;;;40.75;9.63;;;10.70;74.10;;;;;;613600;233;26553;-65
2022/04/28 06:26:49;;;;;;;51.25;9.45;;;10.70;74.10;;;;;;615952;233;27278;-68
2022/04/28 06:29:16;;;;;;;42.75;8.70;;;10.80;74.10;;;;;;615843;231;26556;-68
2022/04/28 06:31:44;;;;;;;18.67;7.30;;;10.90;74.70;;;;;;613805;233;27247;-68
2022/04/28 06:34:11;;;;;;;20.05;7.22;;;10.80;74.60;;;;;;612437;233;26928;-68
2022/04/28 06:36:38;;;;;;;23.40;7.43;;;10.80;74.80;;;;;;614467;231;26575;-68
2022/04/28 06:39:05;;;;;;;16.35;6.60;;;10.80;75.20;;;;;;615285;231;27244;-68
2022/04/28 06:41:33;;;;;;;18.42;6.87;;;10.90;75.50;;;;;;614144;233;26528;-68
2022/04/28 06:44:00;;;;;;;22.85;6.45;;;11.10;75.60;;;;;;617720;231;26946;-68
2022/04/28 06:46:28;;;;;;;18.48;7.25;;;11.40;75.50;;;;;;614450;231;26582;-68
2022/04/28 06:48:55;;;;;;;14.55;6.82;;;11.50;76.50;;;;;;612486;233;26841;-68
2022/04/28 06:51:22;;;;;;;12.95;6.30;;;11.40;76.40;;;;;;621181;226;26781;-68
2022/04/28 06:53:49;;;;;;;17.80;4.78;;;11.70;76.40;;;;;;620574;231;26636;-68
2022/04/28 06:56:17;;;;;;;6.15;5.55;;;11.90;75.80;;;;;;614444;234;26804;-68
2022/04/28 06:58:44;;;;;;;8.45;3.15;;;11.90;75.50;;;;;;615719;234;26565;-68
2022/04/28 07:01:11;;;;;;;5.75;4.62;;;12.10;75.10;;;;;;614556;233;26792;-68
2022/04/28 07:03:40;;;;;;;4.60;3.80;;;12.00;74.90;;;;;;622515;229;26524;-68
2022/04/28 07:06:05;;;;;;;8.07;4.43;;;12.20;74.30;;;;;;616573;230;26768;-69
2022/04/28 07:08:32;;;;;;;4.68;2.85;;;12.20;74.20;;;;;;613806;233;26574;-68
2022/04/28 07:11:00;;;;;;;5.82;5.18;;;12.10;74.30;;;;;;613316;233;27110;-68
2022/04/28 07:13:27;;;;;;;5.95;3.58;;;12.10;74.40;;;;;;613213;234;26520;-68
2022/04/28 07:15:54;;;;;;;4.97;2.25;;;12.40;74.20;;;;;;613024;233;26615;-69
2022/04/28 07:18:22;;;;;;;5.70;3.12;;;12.60;72.40;;;;;;612747;234;26634;-69
2022/04/28 07:20:50;;;;;;;2.55;2.35;;;12.80;71.90;;;;;;613031;234;26627;-68
2022/04/28 07:23:18;;;;;;;4.93;2.10;;;12.70;71.90;;;;;;612841;234;26536;-69
2022/04/28 07:25:46;;;;;;;2.80;2.60;;;12.80;71.70;;;;;;612730;233;26535;-69
2022/04/28 07:28:14;;;;;;;3.45;2.37;;;12.80;71.40;;;;;;612716;234;26591;-69
2022/04/28 07:30:41;;;;;;;6.32;2.28;;;12.80;72.00;;;;;;612724;233;26854;-69
2022/04/28 07:33:08;;;;;;;4.80;2.90;;;12.80;71.00;;;;;;612792;234;26573;-70
2022/04/28 07:35:35;;;;;;;3.22;2.92;;;12.90;71.70;;;;;;612709;234;26774;-69
2022/04/28 07:38:03;;;;;;;2.12;1.70;;;13.00;71.60;;;;;;612769;233;26583;-69
2022/04/28 07:40:30;;;;;;;3.75;2.17;;;13.20;71.70;;;;;;612606;233;26807;-69
2022/04/28 07:42:57;;;;;;;2.35;1.52;;;13.30;70.40;;;;;;612462;235;26600;-69
2022/04/28 07:45:24;;;;;;;2.03;1.90;;;13.00;73.30;;;;;;612422;235;26685;-69
2022/04/28 07:47:52;;;;;;;2.40;2.00;;;13.10;69.60;;;;;;612444;233;26632;-69
2022/04/28 07:50:20;;;;;;;2.45;1.85;;;13.30;69.70;;;;;;612483;235;26569;-70
2022/04/28 07:52:47;;;;;;;2.50;1.83;;;13.30;69.70;;;;;;612314;234;26616;-70
2022/04/28 07:55:15;;;;;;;4.55;1.98;;;13.50;67.90;;;;;;614023;231;26808;-69
2022/04/28 07:57:42;;;;;;;2.65;1.90;;;13.60;69.60;;;;;;616930;231;26594;-70
2022/04/28 08:00:11;;;;;;;2.80;1.70;;;13.40;67.30;;;;;;615953;231;26569;-70
2022/04/28 08:02:38;;;;;;;3.90;2.03;;;13.40;67.30;;;;;;616654;231;26609;-71
2022/04/28 08:05:06;;;;;;;3.20;1.33;;;13.50;67.50;;;;;;614969;231;26566;-68
2022/04/28 08:07:34;;;;;;;4.62;2.72;;;13.40;67.40;;;;;;614744;231;26584;-68
2022/04/28 08:10:02;;;;;;;3.50;2.35;;;12.90;66.90;;;;;;612441;228;26645;-69
2022/04/28 08:12:29;;;;;;;4.05;2.00;;;13.00;67.20;;;;;;612474;233;26532;-69
2022/04/28 08:14:57;;;;;;;7.70;2.28;;;13.00;67.40;;;;;;612746;232;26576;-69
2022/04/28 08:17:26;;;;;;;5.12;2.90;;;13.10;67.50;;;;;;613996;234;26575;-69
2022/04/28 08:19:53;;;;;;;12.82;5.12;;;13.10;67.50;;;;;;616768;231;26558;-70
2022/04/28 08:22:20;;;;;;;13.60;5.50;;;13.30;67.20;;;;;;616887;231;26564;-70
2022/04/28 08:24:48;;;;;;;6.57;4.70;;;13.50;66.80;;;;;;616962;231;26648;-70
2022/04/28 08:27:15;;;;;;;9.02;5.03;;;13.50;66.40;;;;;;615565;231;26647;-70
2022/04/28 08:29:42;;;;;;;6.75;4.50;;;13.50;66.10;;;;;;618164;230;27320;-70
2022/04/28 08:32:12;;;;;;;8.40;5.07;;;13.40;64.70;;;;;;615429;231;26579;-69
2022/04/28 08:34:38;;;;;;;8.70;4.93;;;13.30;64.50;;;;;;616331;230;26627;-70
2022/04/28 08:37:06;;;;;;;5.75;3.42;;;13.20;64.80;;;;;;616235;230;26580;-70
2022/04/28 08:39:34;;;;;;;6.82;4.40;;;13.40;63.70;;;;;;615410;230;26620;-71
2022/04/28 08:42:01;;;;;;;7.20;4.60;;;13.40;63.70;;;;;;615832;231;26564;-71
2022/04/28 08:44:29;;;;;;;5.72;4.45;;;13.60;63.50;;;;;;616850;230;26553;-71
2022/04/28 08:46:56;;;;;;;7.03;4.30;;;13.80;63.00;;;;;;617869;230;26907;-72
2022/04/28 08:49:24;;;;;;;10.02;4.47;;;13.80;63.00;;;;;;616203;230;26564;-71
2022/04/28 08:51:51;;;;;;;6.82;4.40;;;13.90;62.40;;;;;;616562;231;26788;-71
2022/04/28 08:54:19;;;;;;;7.28;4.70;;;14.50;63.20;;;;;;615445;228;26560;-70
2022/04/28 08:56:47;;;;;;;7.43;4.95;;;14.80;61.70;;;;;;615560;231;26580;-69
2022/04/28 08:59:14;;;;;;;7.72;4.35;;;14.80;61.70;;;;;;614382;231;27466;-74
2022/04/28 09:01:41;;;;;;;6.30;4.60;;;14.80;59.90;;;;;;617468;231;26597;-69
2022/04/28 09:04:10;;;;;;;7.28;4.25;;;14.80;60.20;;;;;;614574;230;26569;-68
2022/04/28 09:06:36;;;;;;;11.95;4.70;;;14.60;59.90;;;;;;614302;233;26559;-72
2022/04/28 09:09:04;;;;;;;5.05;4.25;;;14.40;60.90;;;;;;618207;231;26824;-74
2022/04/28 09:11:35;;;;;;;5.45;4.00;;;14.20;61.60;;;;;;615149;231;26831;-72
2022/04/28 09:16:32;;;;;;;6.47;4.45;;;14.30;62.00;;;;;;614282;234;26976;-72
2022/04/28 09:19:00;;;;;;;9.73;4.60;;;14.20;61.00;;;;;;614735;234;26505;-72
2022/04/28 09:21:27;;;;;;;7.75;4.00;;;14.20;60.50;;;;;;615940;233;26767;-73
2022/04/28 09:23:54;;;;;;;9.23;4.18;;;14.20;59.50;;;;;;612487;233;26619;-72
2022/04/28 09:26:23;;;;;;;5.97;4.40;;;14.30;59.70;;;;;;613612;231;26788;-73
2022/04/28 09:28:51;;;;;;;4.95;3.65;;;15.00;59.00;;;;;;615741;231;26596;-73
2022/04/28 09:31:19;;;;;;;4.75;3.72;;;14.90;58.90;;;;;;621662;230;26556;-73
2022/04/28 09:33:47;;;;;;;6.35;3.62;;;15.40;58.60;;;;;;615089;230;26571;-72
2022/04/28 09:36:14;;;;;;;7.00;3.75;;;15.70;57.30;;;;;;615533;231;26577;-73
2022/04/28 09:38:40;;;;;;;7.57;3.65;;;16.00;57.40;;;;;;617532;231;26873;-72
2022/04/28 09:43:43;;;;;;;6.85;3.65;;;15.70;55.60;;;;;;619831;231;27299;-72
2022/04/28 09:46:10;;;;;;;3.40;3.10;;;15.70;55.60;;;;;;615101;228;26810;-72
2022/04/28 09:48:37;;;;;;;6.10;3.42;;;15.70;55.80;;;;;;616527;231;26578;-72
2022/04/28 09:51:04;;;;;;;5.72;3.60;;;15.90;55.60;;;;;;615354;231;27400;-72
2022/04/28 09:53:31;;;;;;;6.20;3.70;;;15.70;55.60;;;;;;615022;233;26600;-73
2022/04/28 09:55:59;;;;;;;2.67;2.50;;;15.70;56.00;;;;;;614173;231;26876;-73
2022/04/28 09:58:26;;;;;;;4.60;3.20;;;15.80;56.40;;;;;;618548;231;26563;-73
2022/04/28 10:01:01;;;;;;;5.00;3.10;;;16.20;56.00;;;;;;613187;233;26548;-72
2022/04/28 10:03:30;;;;;;;4.70;3.30;;;16.20;55.90;;;;;;612856;234;26525;-72
2022/04/28 10:05:57;;;;;;;6.12;3.35;;;16.20;56.30;;;;;;614484;231;26790;-72
2022/04/28 10:08:24;;;;;;;3.55;3.05;;;16.10;56.10;;;;;;614487;228;26575;-72
2022/04/28 10:10:50;;;;;;;5.30;3.12;;;15.70;56.10;;;;;;614101;233;26553;-73
2022/04/28 10:13:18;;;;;;;4.57;2.85;;;15.60;56.20;;;;;;619364;231;26537;-72
2022/04/28 10:15:46;;;;;;;5.87;3.60;;;15.70;56.00;;;;;;613400;231;26546;-72
2022/04/28 10:18:16;;;;;;;4.15;3.08;;;15.80;55.30;;;;;;614619;233;26592;-72
2022/04/28 10:20:42;;;;;;;3.12;2.60;;;15.70;55.20;;;;;;616556;231;26564;-72
2022/04/28 10:23:09;;;;;;;6.05;2.92;;;16.10;55.00;;;;;;621110;231;26769;-71
2022/04/28 10:33:19;;;;;;;5.25;2.90;;;16.80;53.50;;;;;;614569;231;26567;-73
2022/04/28 10:35:46;;;;;;;2.55;2.15;;;16.20;54.90;;;;;;613324;227;26668;-73
2022/04/28 10:38:30;;;;;;;2.80;2.40;;;15.90;55.10;;;;;;616665;229;26584;-72
2022/04/28 10:41:00;;;;;;;6.15;3.05;;;15.70;55.40;;;;;;615077;230;26672;-72
2022/04/28 10:43:37;;;;;;;2.95;2.60;;;15.70;55.40;;;;;;615020;232;26616;-72
2022/04/28 10:46:22;;;;;;;2.80;2.58;;;16.00;55.40;;;;;;615070;231;26597;-72
2022/04/28 10:48:48;;;;;;;2.95;2.70;;;16.50;55.00;;;;;;615213;230;26607;-71
2022/04/28 10:51:15;;;;;;;2.97;2.53;;;16.60;53.40;;;;;;619038;231;26843;-71
2022/04/28 10:53:53;;;;;;;2.75;2.40;;;16.70;54.00;;;;;;614718;228;26579;-70
2022/04/28 10:56:21;;;;;;;3.15;2.72;;;17.30;52.50;;;;;;619173;230;26567;-73
2022/04/28 10:58:48;;;;;;;3.25;2.37;;;17.30;51.60;;;;;;612714;233;26827;-72
2022/04/28 11:01:24;;;;;;;3.10;2.75;;;17.30;51.50;;;;;;615017;233;26860;-71
2022/04/28 11:03:56;;;;;;;3.05;2.37;;;17.10;51.60;;;;;;619917;231;26546;-71
2022/04/28 11:06:30;;;;;;;3.08;2.28;;;17.30;51.50;;;;;;617609;231;26568;-71
2022/04/28 11:08:57;;;;;;;3.72;2.25;;;17.30;51.40;;;;;;615117;231;26567;-71
2022/04/28 11:11:25;;;;;;;3.53;2.80;;;17.10;51.10;;;;;;616704;231;26616;-72
2022/04/28 11:13:57;;;;;;;5.50;2.40;;;17.10;51.70;;;;;;614264;231;26561;-72
2022/04/28 11:16:22;;;;;;;3.78;2.50;;;17.10;51.60;;;;;;613450;233;26766;-72
2022/04/28 11:18:48;;;;;;;5.68;2.67;;;17.20;51.40;;;;;;619829;231;26652;-72
2022/04/28 11:21:16;;;;;;;2.80;2.55;;;17.00;52.00;;;;;;615729;231;26835;-72
2022/04/28 11:23:43;;;;;;;5.20;2.25;;;17.00;52.00;;;;;;619493;231;26808;-72
2022/04/28 11:26:11;;;;;;;4.15;2.22;;;17.00;51.90;;;;;;613404;234;26580;-74
2022/04/28 11:28:38;;;;;;;2.20;2.10;;;17.40;51.90;;;;;;615616;234;27110;-71
2022/04/28 11:31:08;;;;;;;3.33;2.20;;;18.00;50.60;;;;;;613626;233;26558;-71
2022/04/28 11:33:35;;;;;;;3.25;2.33;;;18.40;50.40;;;;;;617886;231;27055;-71
2022/04/28 11:36:02;;;;;;;4.00;2.58;;;18.40;50.30;;;;;;615633;231;26847;-71
2022/04/28 11:38:31;;;;;;;2.40;2.20;;;17.80;49.60;;;;;;614894;231;26656;-71
2022/04/28 11:40:57;;;;;;;4.20;2.70;;;17.90;50.60;;;;;;619692;230;26579;-68
2022/04/28 11:43:25;;;;;;;3.55;2.45;;;17.90;50.60;;;;;;615850;230;26614;-69
2022/04/28 11:45:53;;;;;;;4.65;2.17;;;17.70;51.30;;;;;;613812;231;26561;-71
2022/04/28 11:48:22;;;;;;;3.67;2.42;;;17.70;51.20;;;;;;617305;231;26588;-70
2022/04/28 11:50:48;;;;;;;3.00;2.42;;;17.60;51.10;;;;;;614566;231;26542;-70
2022/04/28 11:53:16;;;;;;;4.07;2.62;;;17.80;50.90;;;;;;614149;232;26614;-70
2022/04/28 11:55:43;;;;;;;3.85;2.20;;;18.10;50.50;;;;;;618833;231;26519;-71
2022/04/28 11:58:12;;;;;;;3.03;2.22;;;18.10;50.50;;;;;;618708;230;26572;-70
2022/04/28 12:00:38;;;;;;;2.45;2.22;;;18.00;49.90;;;;;;618321;230;26592;-70
2022/04/28 12:03:06;;;;;;;4.85;2.55;;;18.00;49.50;;;;;;614028;228;26602;-70
2022/04/28 12:05:34;;;;;;;4.43;2.45;;;18.00;49.60;;;;;;621529;230;26571;-71
2022/04/28 12:08:01;;;;;;;2.60;2.10;;;18.00;49.50;;;;;;615968;230;26619;-70
2022/04/28 12:15:36;;;;;;;3.22;2.25;;;18.20;49.80;;;;;;617044;231;26571;-70
2022/04/28 12:20:54;;;;;;;3.92;2.10;;;18.50;49.00;;;;;;613863;231;26589;-70
2022/04/28 12:23:28;;;;;;;5.07;2.53;;;18.70;49.50;;;;;;616992;230;26615;-70
2022/04/28 12:26:00;;;;;;;4.25;2.15;;;18.50;49.30;;;;;;616538;230;26640;-69
2022/04/28 12:28:39;;;;;;;2.72;2.22;;;18.40;49.20;;;;;;618865;231;26662;-69
2022/04/28 12:31:06;;;;;;;2.10;1.90;;;18.30;49.50;;;;;;617677;231;26593;-69
2022/04/28 12:33:34;;;;;;;2.33;1.92;;;18.10;50.10;;;;;;617451;231;26834;-72
2022/04/28 12:36:02;;;;;;;51.97;9.32;;;18.10;50.20;;;;;;619634;230;26628;-75
2022/04/28 12:38:34;;;;;;;123.57;23.73;;;18.10;50.00;;;;;;614371;233;27223;-71
2022/04/28 12:40:58;;;;;;;527.25;58.28;;;18.10;50.00;;;;;;617284;231;26833;-74
2022/04/28 12:43:34;;;;;;;1271.97;126.55;;;18.00;49.20;;;;;;615217;231;26560;-71
2022/04/28 12:46:02;;;;;;;153.62;31.95;;;18.30;49.00;;;;;;618679;229;27218;-73
2022/04/28 12:48:30;;;;;;;134.60;30.60;;;18.60;50.30;;;;;;612587;228;26587;-72
2022/04/28 12:51:08;;;;;;;127.47;27.15;;;18.90;48.20;;;;;;617475;231;26602;-71
2022/04/28 12:53:35;;;;;;;91.50;23.45;;;18.90;48.40;;;;;;613544;231;26548;-70
2022/04/28 12:56:08;;;;;;;86.35;21.33;;;19.00;48.70;;;;;;614892;231;26593;-69
2022/04/28 12:58:37;;;;;;;64.45;18.90;;;19.00;48.70;;;;;;613592;232;26818;-69
2022/04/28 13:01:04;;;;;;;64.62;17.27;;;18.70;47.60;;;;;;615436;230;26830;-69
2022/04/28 13:03:31;;;;;;;41.90;11.32;;;18.70;47.70;;;;;;619645;230;26598;-70
2022/04/28 13:05:58;;;;;;;49.40;16.42;;;18.70;48.30;;;;;;622077;230;27260;-70
2022/04/28 13:08:25;;;;;;;31.33;12.43;;;18.70;48.20;;;;;;619682;230;26587;-70
2022/04/28 13:10:53;;;;;;;59.47;14.18;;;18.90;48.90;;;;;;615298;229;26576;-70
2022/04/28 13:13:22;;;;;;;16.45;6.03;;;19.40;48.60;;;;;;614716;227;26603;-70
2022/04/28 13:15:49;;;;;;;37.50;11.77;;;20.70;47.20;;;;;;615237;232;26564;-70
2022/04/28 13:18:17;;;;;;;46.17;12.50;;;21.80;47.60;;;;;;616014;231;26603;-69
2022/04/28 13:20:44;;;;;;;32.75;10.30;;;21.70;47.80;;;;;;615226;231;26574;-69
2022/04/28 13:23:12;;;;;;;33.58;10.02;;;22.50;44.90;;;;;;615373;233;26612;-69
2022/04/28 13:25:40;;;;;;;22.08;8.93;;;22.60;44.20;;;;;;613725;227;26548;-69
2022/04/28 13:28:08;;;;;;;25.98;7.05;;;23.40;44.40;;;;;;614996;230;26605;-70
2022/04/28 13:30:36;;;;;;;19.75;7.05;;;23.60;43.20;;;;;;614549;230;26564;-69